Time;durP1;ratioP1;P1;durP2;ratioP2;P2;SDS_P1;SDS_P2;PMS_P1;PMS_P2;Temp;Humidity;BMP_temperature;BMP_pressure;BME280_temperature;BME280_humidity;BME280_pressure;Samples;Min_cycle;Max_cycle;Signal;HPM_P1;HPM_P2
2022/04/21 00:02:15;;;;;;;3.42;3.05;;;;;;;4.99;100.00;98222.78;4979912;28;20783;-56
2022/04/21 00:04:40;;;;;;;3.47;2.97;;;;;;;4.78;100.00;98226.38;4986221;28;20238;-55
2022/04/21 00:07:06;;;;;;;3.10;2.90;;;;;;;4.85;100.00;98221.78;4977942;28;20200;-56
2022/04/21 00:09:31;;;;;;;2.80;2.70;;;;;;;4.84;100.00;98220.94;4978034;28;20204;-56
2022/04/21 00:11:57;;;;;;;3.10;2.90;;;;;;;4.74;100.00;98224.88;4982415;28;20196;-55
2022/04/21 00:14:22;;;;;;;3.00;2.80;;;;;;;4.74;100.00;98237.69;4983707;28;20206;-56
2022/04/21 00:16:47;;;;;;;2.78;2.60;;;;;;;4.96;100.00;98220.34;4981310;28;20201;-56
2022/04/21 00:19:13;;;;;;;2.80;2.70;;;;;;;5.08;100.00;98236.88;4971565;28;20189;-56
2022/04/21 00:24:22;;;;;;;2.50;2.40;;;;;;;5.24;100.00;98241.16;4962921;28;20227;-56
2022/04/21 00:26:47;;;;;;;2.58;2.42;;;;;;;5.38;100.00;98232.78;4974197;28;20188;-55
2022/04/21 00:29:13;;;;;;;2.20;2.10;;;;;;;5.65;100.00;98232.19;4975030;28;20294;-56
2022/04/21 00:31:39;;;;;;;2.47;2.38;;;;;;;5.78;100.00;98235.78;4977715;28;20195;-56
2022/04/21 00:34:05;;;;;;;2.80;2.60;;;;;;;5.64;100.00;98240.81;4973850;28;20192;-56
2022/04/21 00:36:30;;;;;;;2.80;2.60;;;;;;;5.76;100.00;98250.44;4988316;28;20195;-55
2022/04/21 00:38:55;;;;;;;2.78;2.67;;;;;;;5.47;100.00;98248.53;4976821;28;20213;-56
2022/04/21 00:41:21;;;;;;;3.13;2.92;;;;;;;5.29;100.00;98254.59;4958059;28;20696;-56
2022/04/21 00:43:46;;;;;;;3.00;2.83;;;;;;;5.20;100.00;98259.34;4959377;28;20196;-56
2022/04/21 00:46:19;;;;;;;3.05;2.85;;;;;;;5.01;100.00;98254.28;4969068;28;20188;-56
2022/04/21 00:48:46;;;;;;;3.13;2.92;;;;;;;5.08;100.00;98259.97;4975533;28;20207;-56
2022/04/21 00:51:12;;;;;;;3.60;3.40;;;;;;;5.19;100.00;98263.63;4979658;28;20617;-56
2022/04/21 00:53:39;;;;;;;3.28;3.08;;;;;;;5.08;100.00;98276.16;4976895;28;20192;-56
2022/04/21 00:56:05;;;;;;;3.30;3.10;;;;;;;5.21;100.00;98272.09;4982908;28;20254;-56
2022/04/21 00:58:31;;;;;;;2.92;2.83;;;;;;;5.27;100.00;98266.66;4969388;28;20277;-56
2022/04/21 01:00:57;;;;;;;3.53;3.30;;;;;;;5.18;100.00;98271.44;4984049;28;20195;-56
2022/04/21 01:03:22;;;;;;;3.55;3.25;;;;;;;5.24;100.00;98277.06;4977531;28;20680;-55
2022/04/21 01:05:49;;;;;;;4.57;3.53;;;;;;;5.10;100.00;98269.25;4979226;28;20194;-56
2022/04/21 01:08:14;;;;;;;4.50;3.97;;;;;;;5.03;100.00;98288.41;4979111;28;20187;-56
2022/04/21 01:10:43;;;;;;;4.30;3.90;;;;;;;5.10;100.00;98294.88;4982690;28;20649;-55
2022/04/21 01:13:10;;;;;;;4.30;3.90;;;;;;;5.13;100.00;98284.47;4986548;28;20275;-56
2022/04/21 01:15:37;;;;;;;5.45;4.00;;;;;;;5.18;100.00;98297.88;4975344;28;20212;-56
2022/04/21 01:18:04;;;;;;;4.95;3.67;;;;;;;5.03;100.00;98290.97;4975256;28;20192;-56
2022/04/21 01:20:29;;;;;;;4.68;3.63;;;;;;;4.94;100.00;98293.94;4981570;28;20995;-56
2022/04/21 01:22:55;;;;;;;4.05;3.72;;;;;;;4.95;100.00;98280.22;4960340;28;20223;-56
2022/04/21 01:25:24;;;;;;;4.13;3.75;;;;;;;4.98;100.00;98294.63;4957923;28;20203;-56
2022/04/21 01:27:56;;;;;;;4.07;3.78;;;;;;;4.99;100.00;98291.16;4963064;28;20188;-56
2022/04/21 01:30:21;;;;;;;4.20;3.80;;;;;;;5.01;100.00;98297.88;4975813;28;20283;-56
2022/04/21 01:32:49;;;;;;;4.15;3.75;;;;;;;5.15;100.00;98290.34;4970783;28;20732;-56
2022/04/21 01:35:15;;;;;;;3.78;3.47;;;;;;;5.08;100.00;98291.53;4976101;28;20199;-56
2022/04/21 01:43:10;;;;;;;4.20;3.90;;;;;;;4.97;100.00;98281.00;4964422;28;20207;-56
2022/04/21 01:45:36;;;;;;;4.53;4.10;;;;;;;5.05;100.00;98278.88;4957709;28;20211;-56
2022/04/21 01:48:02;;;;;;;4.30;3.88;;;;;;;5.05;100.00;98266.06;4959578;28;20279;-56
2022/04/21 01:50:28;;;;;;;3.70;3.40;;;;;;;5.13;100.00;98268.25;4971163;28;20211;-55
2022/04/21 01:52:56;;;;;;;4.32;4.07;;;;;;;5.10;100.00;98269.25;4975151;28;20182;-56
2022/04/21 01:55:21;;;;;;;4.35;4.05;;;;;;;5.23;100.00;98264.31;4976653;28;20191;-56
2022/04/21 01:57:47;;;;;;;4.20;3.90;;;;;;;5.12;100.00;98262.28;4966065;28;20200;-56
2022/04/21 02:00:12;;;;;;;3.70;3.50;;;;;;;4.94;100.00;98263.19;4974160;28;20621;-55
2022/04/21 02:02:38;;;;;;;3.72;3.53;;;;;;;4.90;100.00;98268.53;4980207;28;20582;-56
2022/04/21 02:05:04;;;;;;;4.20;3.90;;;;;;;4.89;100.00;98261.75;4962476;28;20192;-56
2022/04/21 02:07:29;;;;;;;3.60;3.38;;;;;;;4.67;100.00;98218.38;4957746;28;20290;-56
2022/04/21 02:09:55;;;;;;;3.50;3.22;;;;;;;4.89;100.00;98260.00;4944229;28;20278;-57
2022/04/21 02:12:23;;;;;;;3.58;3.28;;;;;;;4.83;100.00;98257.75;4977034;28;20188;-56
2022/04/21 02:14:49;;;;;;;3.58;3.30;;;;;;;4.75;100.00;98256.44;4974525;28;20223;-57
2022/04/21 02:17:14;;;;;;;4.00;3.78;;;;;;;4.80;100.00;98252.78;4983694;28;20302;-57
2022/04/21 02:19:40;;;;;;;3.60;3.40;;;;;;;4.81;100.00;98233.94;4976346;28;20180;-57
2022/04/21 02:22:06;;;;;;;3.85;3.63;;;;;;;4.93;100.00;98253.00;4971155;28;20194;-56
2022/04/21 02:24:31;;;;;;;3.88;3.58;;;;;;;5.01;100.00;98249.16;4956925;28;20220;-56
2022/04/21 02:26:56;;;;;;;3.60;3.40;;;;;;;4.98;100.00;98253.59;4956069;28;20196;-56
2022/04/21 02:29:22;;;;;;;3.78;3.58;;;;;;;4.90;100.00;98248.03;4957819;28;20437;-56
2022/04/21 02:31:47;;;;;;;3.65;3.40;;;;;;;4.98;100.00;98246.75;4961733;28;20831;-57
2022/04/21 02:34:13;;;;;;;4.07;3.25;;;;;;;5.00;100.00;98247.50;4963268;28;20180;-56
2022/04/21 02:36:38;;;;;;;5.35;4.85;;;;;;;5.09;100.00;98236.81;4956354;28;20184;-56
2022/04/21 02:39:04;;;;;;;5.50;5.00;;;;;;;5.01;100.00;98241.47;4959784;28;20238;-56
2022/04/21 02:41:29;;;;;;;5.43;4.80;;;;;;;5.03;100.00;98237.13;4958867;28;20685;-57
2022/04/21 02:43:55;;;;;;;4.38;3.95;;;;;;;4.91;100.00;98240.25;4962664;28;20192;-56
2022/04/21 02:46:24;;;;;;;4.25;3.95;;;;;;;4.75;100.00;98236.78;4947652;28;20567;-57
2022/04/21 02:48:50;;;;;;;6.00;3.65;;;;;;;4.64;100.00;98254.41;4941644;28;20259;-56
2022/04/21 02:51:15;;;;;;;3.55;3.35;;;;;;;4.61;100.00;98253.72;4943793;28;20189;-56
2022/04/21 02:59:08;;;;;;;4.32;4.03;;;;;;;4.67;100.00;98254.25;4959626;28;20305;-56
2022/04/21 03:01:34;;;;;;;3.80;3.50;;;;;;;4.77;100.00;98252.06;4961750;28;20224;-56
2022/04/21 03:04:00;;;;;;;4.10;3.80;;;;;;;4.77;100.00;98250.34;4965494;28;20187;-56
2022/04/21 03:06:25;;;;;;;3.85;3.35;;;;;;;4.73;100.00;98248.81;4963931;28;20192;-56
2022/04/21 03:08:50;;;;;;;4.40;4.10;;;;;;;4.41;100.00;98190.63;4960560;28;20588;-56
2022/04/21 03:11:17;;;;;;;4.43;4.13;;;;;;;4.57;100.00;98254.75;4960713;28;20187;-56
2022/04/21 03:13:42;;;;;;;4.03;3.72;;;;;;;4.71;100.00;98248.09;4966498;28;20551;-57
2022/04/21 03:16:07;;;;;;;3.90;3.60;;;;;;;4.67;100.00;98248.31;4957898;28;20196;-57
2022/04/21 03:18:33;;;;;;;3.75;3.47;;;;;;;4.55;100.00;98236.09;4958935;28;20187;-57
2022/04/21 03:26:26;;;;;;;4.10;3.80;;;;;;;4.37;100.00;98250.56;4976167;28;20222;-56
2022/04/21 03:28:52;;;;;;;4.28;3.85;;;;;;;4.45;100.00;98251.06;4968388;28;20227;-56
2022/04/21 03:31:17;;;;;;;4.22;3.92;;;;;;;4.63;100.00;98257.03;4959998;28;20254;-56
2022/04/21 03:33:43;;;;;;;4.47;3.60;;;;;;;4.77;100.00;98254.63;4962369;28;20176;-56
2022/04/21 03:36:09;;;;;;;4.53;4.03;;;;;;;4.85;100.00;98266.19;4974232;28;20215;-57
2022/04/21 03:38:38;;;;;;;3.72;3.53;;;;;;;4.78;100.00;98264.81;4987894;28;20211;-57
2022/04/21 03:41:04;;;;;;;4.38;3.97;;;;;;;4.73;100.00;98264.22;4980926;28;20623;-57
2022/04/21 03:43:29;;;;;;;3.65;3.45;;;;;;;4.81;100.00;98268.97;4980289;28;20250;-56
2022/04/21 03:45:54;;;;;;;3.28;3.08;;;;;;;4.95;100.00;98280.22;4973474;28;20184;-56
2022/04/21 03:48:20;;;;;;;3.80;3.60;;;;;;;4.93;100.00;98271.78;4982687;28;20192;-56
2022/04/21 03:50:45;;;;;;;3.42;3.22;;;;;;;5.02;100.00;98273.88;4978579;28;20202;-56
2022/04/21 03:53:11;;;;;;;3.83;3.50;;;;;;;5.07;100.00;98276.25;4979474;28;20234;-56
2022/04/21 03:55:36;;;;;;;4.18;3.80;;;;;;;5.14;100.00;98270.72;4984815;28;20636;-56
2022/04/21 03:58:01;;;;;;;4.15;3.25;;;;;;;5.13;100.00;98275.94;4976469;28;20192;-57
2022/04/21 04:00:27;;;;;;;3.72;3.50;;;;;;;5.28;100.00;98272.63;4972204;28;20340;-57
2022/04/21 04:02:54;;;;;;;3.60;3.30;;;;;;;5.31;100.00;98268.16;4983432;28;20175;-56
2022/04/21 04:05:19;;;;;;;3.08;2.88;;;;;;;5.34;100.00;98265.47;4980213;28;20556;-56
2022/04/21 04:13:13;;;;;;;3.95;3.65;;;;;;;5.78;97.52;98263.19;4959449;28;20284;-57
2022/04/21 04:15:39;;;;;;;3.80;3.50;;;;;;;5.86;99.18;98272.19;4961193;28;20490;-57
2022/04/21 04:18:04;;;;;;;3.38;3.05;;;;;;;5.84;100.00;98268.84;4978901;28;20188;-56
2022/04/21 04:20:29;;;;;;;2.70;2.55;;;;;;;5.94;98.85;98267.47;4982419;28;20258;-57
2022/04/21 04:22:55;;;;;;;2.97;2.78;;;;;;;6.02;97.09;98267.09;4985772;28;20214;-56
2022/04/21 04:25:20;;;;;;;2.83;2.70;;;;;;;6.10;96.45;98260.63;4980041;28;20192;-57
2022/04/21 04:27:46;;;;;;;3.05;2.85;;;;;;;6.23;96.39;98269.34;4975765;28;20199;-57
2022/04/21 04:30:11;;;;;;;2.53;2.42;;;;;;;6.19;94.73;98260.13;4985747;28;20787;-55
2022/04/21 04:32:37;;;;;;;2.97;2.78;;;;;;;6.24;94.42;98253.00;4979477;28;20206;-56
2022/04/21 04:35:03;;;;;;;4.18;3.88;;;;;;;6.32;95.93;98257.75;4958641;28;20184;-56
2022/04/21 04:37:28;;;;;;;5.78;4.10;;;;;;;6.50;96.35;98273.00;4968612;28;20186;-56
2022/04/21 04:39:55;;;;;;;4.82;4.43;;;;;;;6.61;95.36;98273.25;4981139;28;20602;-55
2022/04/21 04:42:22;;;;;;;4.60;4.20;;;;;;;6.66;92.00;98275.56;4978739;28;20681;-56
2022/04/21 04:46:34;;;;;;;7.68;5.15;;;;;;;6.72;92.00;98263.22;4972221;28;20184;-56
2022/04/21 04:47:36;;;;;;;10.65;6.80;;;;;;;6.84;91.40;98271.97;4981044;28;20199;-55
2022/04/21 04:50:02;;;;;;;3.15;2.95;;;;;;;6.83;90.76;98265.97;4980850;28;20666;-56
2022/04/21 04:52:27;;;;;;;3.80;3.15;;;;;;;6.97;89.69;98276.34;4965202;28;20188;-56
2022/04/21 04:54:52;;;;;;;3.53;3.22;;;;;;;6.99;89.44;98269.34;4958357;28;20649;-56
2022/04/21 04:57:18;;;;;;;3.58;3.28;;;;;;;7.00;89.61;98258.16;4960188;28;20657;-56
2022/04/21 04:59:43;;;;;;;2.58;2.45;;;;;;;7.07;90.94;98267.19;4976966;28;20188;-55
2022/04/21 05:02:09;;;;;;;3.53;2.95;;;;;;;7.10;91.44;98258.47;4982463;28;20188;-56
2022/04/21 05:04:34;;;;;;;2.97;2.58;;;;;;;7.13;91.16;98256.56;4978979;28;20196;-55
2022/04/21 05:07:00;;;;;;;3.17;2.90;;;;;;;7.08;91.24;98252.56;4977960;28;20183;-56
2022/04/21 05:09:25;;;;;;;2.55;2.38;;;;;;;7.20;89.67;98257.00;4974432;28;20594;-56
2022/04/21 05:11:53;;;;;;;2.33;2.22;;;;;;;7.31;88.94;98258.06;4978277;28;20751;-56
2022/04/21 05:14:19;;;;;;;2.83;2.63;;;;;;;7.41;88.75;98261.75;4980193;28;20218;-56
2022/04/21 05:16:45;;;;;;;3.78;2.88;;;;;;;7.49;90.78;98254.44;4977639;28;20195;-56
2022/04/21 05:19:13;;;;;;;5.00;4.20;;;;;;;7.58;91.42;98253.88;4981358;28;20184;-56
2022/04/21 05:21:39;;;;;;;8.05;4.60;;;;;;;7.67;90.92;98271.38;4979931;28;20274;-55
2022/04/21 05:24:06;;;;;;;5.97;4.20;;;;;;;7.75;89.62;98271.72;4982221;28;20245;-56
2022/04/21 05:26:32;;;;;;;6.45;4.80;;;;;;;7.89;88.84;98274.31;4979420;28;20648;-56
2022/04/21 05:28:59;;;;;;;6.15;4.90;;;;;;;8.05;85.33;98290.50;4974202;28;20244;-56
2022/04/21 05:31:26;;;;;;;7.63;6.22;;;;;;;8.22;85.03;98289.53;4978709;28;20192;-56
2022/04/21 05:33:53;;;;;;;6.00;5.50;;;;;;;8.34;84.88;98287.00;4985334;28;20184;-56
2022/04/21 05:36:19;;;;;;;6.03;4.57;;;;;;;8.40;85.12;98291.78;4976218;28;20195;-56
2022/04/21 05:38:46;;;;;;;6.28;5.13;;;;;;;8.48;85.79;98294.75;4977743;28;20551;-57
2022/04/21 05:41:14;;;;;;;4.50;4.20;;;;;;;8.60;86.14;98303.44;4984652;28;20853;-57
2022/04/21 05:43:42;;;;;;;4.95;4.47;;;;;;;8.72;84.14;98303.50;4981669;28;20691;-57
2022/04/21 05:46:10;;;;;;;4.78;3.90;;;;;;;8.75;84.15;98305.09;4974508;28;20192;-57
2022/04/21 05:48:36;;;;;;;4.55;4.15;;;;;;;8.77;83.56;98304.06;4968816;28;20541;-57
2022/04/21 05:51:03;;;;;;;4.95;4.55;;;;;;;8.91;82.48;98306.59;4976011;28;20195;-57
2022/04/21 05:53:31;;;;;;;6.63;5.53;;;;;;;8.99;82.32;98304.38;4976335;28;20613;-57
2022/04/21 05:55:56;;;;;;;5.43;4.78;;;;;;;9.12;82.16;98306.97;4979742;28;20919;-57
2022/04/21 05:58:22;;;;;;;5.90;5.10;;;;;;;9.03;82.59;98292.09;4976711;28;20179;-57
2022/04/21 06:00:48;;;;;;;7.38;5.57;;;;;;;9.18;82.59;98306.56;4978427;28;20215;-57
2022/04/21 06:03:13;;;;;;;7.35;6.03;;;;;;;9.10;82.46;98306.25;4980120;28;20288;-55
2022/04/21 06:05:41;;;;;;;8.52;7.03;;;;;;;9.06;82.84;98313.38;4976137;28;20183;-55
2022/04/21 06:08:07;;;;;;;8.52;7.03;;;;;;;9.06;83.53;98303.03;4978542;28;20184;-56
2022/04/21 06:10:36;;;;;;;11.77;8.05;;;;;;;9.01;83.30;98291.34;4984815;28;20265;-56
2022/04/21 06:13:03;;;;;;;8.07;7.25;;;;;;;9.02;84.45;98301.56;4973922;28;20180;-56
2022/04/21 06:15:32;;;;;;;9.45;8.18;;;;;;;9.03;84.25;98297.25;4977678;28;20206;-56
2022/04/21 06:18:01;;;;;;;9.98;7.20;;;;;;;8.98;83.11;98286.38;4960931;28;20184;-57
2022/04/21 06:20:27;;;;;;;10.20;7.68;;;;;;;9.15;82.90;98294.69;4957850;28;20674;-56
2022/04/21 06:22:53;;;;;;;11.23;8.27;;;;;;;9.23;83.88;98300.19;4962797;28;20218;-57
2022/04/21 06:25:19;;;;;;;11.35;7.63;;;;;;;9.31;84.15;98291.97;4976704;28;20668;-57
2022/04/21 06:27:44;;;;;;;8.93;7.07;;;;;;;9.37;83.40;98287.22;4978835;28;20626;-57
2022/04/21 06:30:10;;;;;;;9.18;6.93;;;;;;;9.38;85.18;98288.84;4977790;28;20709;-57
2022/04/21 06:32:35;;;;;;;9.70;7.57;;;;;;;9.46;84.78;98286.63;4978916;28;20550;-57
2022/04/21 06:35:01;;;;;;;9.82;7.53;;;;;;;9.44;84.69;98292.81;4979363;28;20728;-55
2022/04/21 06:37:26;;;;;;;9.23;7.47;;;;;;;9.55;84.28;98291.16;4979147;28;20497;-56
2022/04/21 06:39:51;;;;;;;13.95;8.82;;;;;;;9.60;85.47;98299.44;4975870;28;20266;-56
2022/04/21 06:42:17;;;;;;;12.27;9.15;;;;;;;9.60;85.71;98296.84;4977217;28;20198;-57
2022/04/21 06:50:10;;;;;;;15.13;8.57;;;;;;;9.68;85.17;98292.00;4970628;28;20227;-57
2022/04/21 06:52:37;;;;;;;11.55;8.48;;;;;;;9.72;85.02;98296.03;4984376;28;20263;-57
2022/04/21 06:55:03;;;;;;;9.88;8.65;;;;;;;9.75;85.26;98293.25;4982610;28;20183;-56
2022/04/21 06:57:28;;;;;;;10.07;8.48;;;;;;;9.79;85.83;98300.69;4977865;28;20196;-57
2022/04/21 06:59:54;;;;;;;13.32;8.18;;;;;;;9.74;87.46;98294.16;4975245;28;20183;-57
2022/04/21 07:02:27;;;;;;;9.82;8.75;;;;;;;9.73;87.32;98293.34;4976601;28;20187;-56
2022/04/21 07:04:52;;;;;;;9.63;8.43;;;;;;;9.83;86.70;98301.31;4979193;28;20623;-57
2022/04/21 07:07:17;;;;;;;9.13;7.60;;;;;;;9.89;86.71;98294.00;4968918;28;20211;-57
2022/04/21 07:09:43;;;;;;;13.25;8.45;;;;;;;9.93;86.25;98299.78;4979046;28;20208;-57
2022/04/21 07:12:09;;;;;;;9.60;8.38;;;;;;;9.94;84.96;98296.25;4986690;28;20199;-57
2022/04/21 07:14:35;;;;;;;11.68;8.02;;;;;;;9.72;85.77;98298.63;4976767;28;20184;-57
2022/04/21 07:17:00;;;;;;;10.30;8.77;;;;;;;9.51;87.58;98289.72;4976718;28;20187;-57
2022/04/21 07:19:26;;;;;;;8.95;8.10;;;;;;;9.55;86.38;98305.84;4967463;28;20196;-57
2022/04/21 07:21:51;;;;;;;11.10;8.32;;;;;;;9.61;86.83;98295.91;4955944;28;20332;-56
2022/04/21 07:24:16;;;;;;;10.02;7.43;;;;;;;9.79;87.21;98297.28;4959723;28;20224;-57
2022/04/21 07:26:42;;;;;;;12.27;9.50;;;;;;;9.98;85.74;98305.47;4978174;28;20191;-57
2022/04/21 07:29:07;;;;;;;10.18;7.93;;;;;;;10.14;84.68;98303.50;4976014;28;20203;-57
2022/04/21 07:31:33;;;;;;;10.57;7.90;;;;;;;10.29;82.09;98300.72;4977082;28;20188;-56
2022/04/21 07:33:58;;;;;;;8.90;7.40;;;;;;;10.34;81.32;98298.59;4981588;28;20629;-56
2022/04/21 07:36:23;;;;;;;11.93;9.13;;;;;;;10.37;81.73;98298.41;4978989;28;20674;-57
2022/04/21 07:38:49;;;;;;;9.73;8.50;;;;;;;10.47;82.08;98296.84;4975690;28;20564;-57
2022/04/21 07:41:15;;;;;;;10.20;8.23;;;;;;;10.55;80.92;98304.03;4981020;28;20195;-57
2022/04/21 07:43:42;;;;;;;14.43;9.27;;;;;;;10.62;81.15;98303.50;4979210;28;20186;-56
2022/04/21 07:46:09;;;;;;;13.48;8.65;;;;;;;10.66;80.40;98298.94;4981435;28;20192;-56
2022/04/21 07:51:18;;;;;;;14.48;8.50;;;;;;;10.88;79.20;98299.94;4979918;28;20230;-57
2022/04/21 07:53:44;;;;;;;10.15;7.00;;;;;;;10.91;77.14;98298.88;4975875;28;20188;-56
2022/04/21 07:56:09;;;;;;;12.82;8.73;;;;;;;10.96;78.86;98294.16;4971340;28;20188;-57
2022/04/21 07:58:34;;;;;;;9.52;7.25;;;;;;;10.94;79.50;98296.91;4983965;28;20629;-57
2022/04/21 08:01:00;;;;;;;11.85;7.88;;;;;;;11.00;79.81;98303.38;4986720;28;20191;-57
2022/04/21 08:03:26;;;;;;;10.95;8.27;;;;;;;11.09;79.91;98303.53;4977940;28;20739;-56
2022/04/21 08:05:52;;;;;;;18.80;15.13;;;;;;;11.20;79.78;98300.19;4979635;28;20184;-56
2022/04/21 08:08:17;;;;;;;12.15;7.88;;;;;;;11.23;78.67;98307.72;4984601;28;20194;-56
2022/04/21 08:10:43;;;;;;;9.52;8.07;;;;;;;11.11;77.99;98298.25;4972590;28;20203;-56
2022/04/21 08:13:09;;;;;;;13.13;8.00;;;;;;;11.25;78.86;98314.44;4974636;28;20666;-56
2022/04/21 08:15:35;;;;;;;12.38;8.25;;;;;;;11.15;78.41;98313.44;4983576;28;20188;-56
2022/04/21 08:18:03;;;;;;;11.43;8.40;;;;;;;10.99;78.55;98310.34;4978476;28;20195;-56
2022/04/21 08:20:31;;;;;;;9.93;8.25;;;;;;;10.86;78.55;98311.31;4977210;28;20175;-57
2022/04/21 08:22:56;;;;;;;11.07;8.02;;;;;;;11.04;79.38;98308.22;4976552;28;20813;-57
2022/04/21 08:33:35;;;;;;;15.98;9.23;;;;;;;11.72;76.72;98319.59;4979614;28;20179;-56
2022/04/21 08:36:01;;;;;;;13.65;8.85;;;;;;;11.76;77.37;98315.84;4976016;28;20796;-55
2022/04/21 08:38:28;;;;;;;16.63;11.45;;;;;;;11.72;76.24;98318.78;4981328;28;20209;-56
2022/04/21 08:40:58;;;;;;;16.25;9.60;;;;;;;11.77;77.39;98322.66;4971505;28;20180;-55
2022/04/21 08:43:27;;;;;;;15.15;11.95;;;;;;;11.83;77.69;98322.19;4978699;28;20204;-56
2022/04/21 08:45:53;;;;;;;13.75;9.23;;;;;;;11.49;76.82;98322.22;4958019;28;20192;-55
2022/04/21 08:48:21;;;;;;;13.52;11.23;;;;;;;11.65;76.78;98325.31;4942420;28;20661;-57
2022/04/21 08:50:46;;;;;;;15.98;11.77;;;;;;;11.81;76.43;98329.28;4972567;28;20705;-56
2022/04/21 08:53:18;;;;;;;14.98;10.95;;;;;;;12.02;74.19;98322.47;4976032;28;20179;-56
2022/04/21 08:55:44;;;;;;;14.73;10.30;;;;;;;12.16;73.27;98321.41;4976981;28;20188;-56
2022/04/21 08:58:11;;;;;;;17.02;9.98;;;;;;;12.26;72.89;98319.78;4974873;28;20680;-56
2022/04/21 09:00:37;;;;;;;14.07;10.02;;;;;;;12.27;72.91;98306.72;4976479;28;20183;-56
2022/04/21 09:03:05;;;;;;;16.88;9.98;;;;;;;11.96;75.88;98316.94;4948008;28;20196;-56
2022/04/21 09:05:31;;;;;;;15.32;10.55;;;;;;;11.99;78.05;98321.88;4969158;28;20188;-57
2022/04/21 09:07:58;;;;;;;14.00;10.63;;;;;;;12.13;77.92;98313.88;4958076;28;20195;-57
2022/04/21 09:10:25;;;;;;;13.18;9.95;;;;;;;12.28;75.32;98317.88;4961663;28;20551;-57
2022/04/21 09:12:56;;;;;;;39.63;35.55;;;;;;;12.42;74.28;98315.06;4983777;28;20433;-57
2022/04/21 09:15:24;;;;;;;17.77;13.75;;;;;;;12.54;74.27;98314.13;4975209;28;20203;-55
2022/04/21 09:17:57;;;;;;;11.65;9.40;;;;;;;12.66;74.48;98315.75;4968936;28;20215;-55
2022/04/21 09:20:27;;;;;;;14.45;9.43;;;;;;;12.56;73.06;98313.06;4977759;28;20182;-55
2022/04/21 09:22:55;;;;;;;14.48;9.75;;;;;;;12.44;75.94;98313.97;4973528;28;20219;-55
2022/04/21 09:25:22;;;;;;;15.60;10.63;;;;;;;12.47;74.59;98307.72;4980931;28;20262;-56
2022/04/21 09:27:50;;;;;;;13.15;10.13;;;;;;;12.62;75.64;98303.97;4976495;28;20191;-56
2022/04/21 09:30:16;;;;;;;11.27;9.43;;;;;;;12.66;74.17;98302.78;4978603;28;20307;-56
2022/04/21 09:32:55;;;;;;;13.60;10.05;;;;;;;12.64;74.89;98302.88;4975874;28;20188;-55
2022/04/21 09:35:33;;;;;;;14.68;10.32;;;;;;;12.76;74.92;98308.88;4978117;28;20568;-55
2022/04/21 09:38:02;;;;;;;12.00;8.82;;;;;;;12.81;74.07;98293.75;4977162;28;20196;-55
2022/04/21 09:40:29;;;;;;;13.63;9.68;;;;;;;12.51;77.00;98284.03;4980531;28;20187;-55
2022/04/21 09:42:57;;;;;;;14.43;10.35;;;;;;;12.69;76.91;98286.94;4962580;28;20187;-55
2022/04/21 09:48:16;;;;;;;11.40;9.48;;;;;;;12.66;77.44;98277.63;4958804;28;20704;-55
2022/04/21 09:50:42;;;;;;;11.38;9.77;;;;;;;12.48;80.41;98267.88;4957904;28;20188;-55
2022/04/21 09:53:08;;;;;;;11.43;10.00;;;;;;;12.51;79.32;98258.09;4945343;28;20192;-55
2022/04/21 09:55:34;;;;;;;13.23;11.27;;;;;;;12.82;77.84;98280.66;4977791;28;20223;-56
2022/04/21 09:58:10;;;;;;;20.02;15.55;;;;;;;13.07;76.83;98277.78;4977206;28;20196;-56
2022/04/21 10:00:37;;;;;;;16.15;11.10;;;;;;;13.22;76.18;98273.13;4978530;28;20635;-55
2022/04/21 10:03:04;;;;;;;11.23;10.02;;;;;;;13.35;76.71;98273.78;4978205;28;20661;-55
2022/04/21 10:05:31;;;;;;;11.23;10.13;;;;;;;13.52;74.98;98283.59;4983562;28;20250;-55
2022/04/21 10:08:00;;;;;;;10.95;9.80;;;;;;;13.65;73.36;98273.88;4971947;28;20592;-55
2022/04/21 10:10:28;;;;;;;11.43;8.75;;;;;;;13.73;73.12;98274.03;4957321;28;20196;-55
2022/04/21 10:12:55;;;;;;;10.30;9.30;;;;;;;13.83;73.03;98275.72;4958693;28;20195;-56
2022/04/21 10:15:21;;;;;;;12.68;10.18;;;;;;;13.91;74.40;98275.94;4972948;28;20579;-55
2022/04/21 10:17:46;;;;;;;12.15;9.27;;;;;;;14.05;73.21;98278.19;4975129;28;20727;-55
2022/04/21 10:20:12;;;;;;;10.98;8.95;;;;;;;14.16;73.26;98270.28;4977078;28;20916;-55
2022/04/21 10:22:38;;;;;;;10.93;9.43;;;;;;;14.29;72.43;98272.72;4978188;28;20219;-55
2022/04/21 10:25:06;;;;;;;19.20;12.63;;;;;;;14.36;72.56;98279.03;4980120;28;20184;-55
2022/04/21 10:27:45;;;;;;;12.82;9.77;;;;;;;14.13;77.34;98270.56;4978878;28;20628;-55
2022/04/21 10:30:19;;;;;;;11.77;9.52;;;;;;;14.35;76.27;98269.59;4976556;28;20301;-56
2022/04/21 10:33:03;;;;;;;11.68;9.13;;;;;;;14.57;73.09;98275.41;4977493;28;20179;-56
2022/04/21 10:35:28;;;;;;;11.65;9.60;;;;;;;14.72;72.08;98270.66;4976182;28;20271;-56
2022/04/21 10:38:12;;;;;;;11.27;9.40;;;;;;;14.82;73.62;98274.91;4970214;28;20327;-56
2022/04/21 10:41:10;;;;;;;11.40;9.00;;;;;;;14.91;75.39;98274.13;4972511;28;20188;-55
2022/04/21 10:43:48;;;;;;;11.40;9.45;;;;;;;15.05;74.49;98275.50;4970062;28;20741;-55
2022/04/21 10:46:22;;;;;;;9.98;8.60;;;;;;;15.13;74.72;98267.81;4975923;28;20644;-56
2022/04/21 10:48:49;;;;;;;14.25;10.00;;;;;;;15.18;72.40;98263.03;4970812;28;20180;-56
2022/04/21 10:57:16;;;;;;;12.63;8.80;;;;;;;15.11;74.29;98254.91;4979356;28;20301;-56
2022/04/21 10:59:50;;;;;;;9.30;8.40;;;;;;;14.97;74.73;98254.50;4970149;28;20578;-56
2022/04/21 11:02:16;;;;;;;10.32;9.25;;;;;;;14.91;74.89;98260.25;4971762;28;20591;-56
2022/04/21 11:04:42;;;;;;;20.45;13.27;;;;;;;15.10;74.44;98255.88;4987267;28;20190;-56
2022/04/21 11:07:12;;;;;;;13.70;9.48;;;;;;;15.15;71.91;98258.06;4990781;28;20199;-57
2022/04/21 11:09:50;;;;;;;10.45;8.82;;;;;;;15.29;71.71;98257.69;4990744;28;20325;-57
2022/04/21 11:12:18;;;;;;;9.43;8.40;;;;;;;15.48;73.29;98257.69;4981208;28;20531;-57
2022/04/21 11:14:44;;;;;;;8.43;7.63;;;;;;;15.64;73.61;98260.56;4980252;28;20215;-57
2022/04/21 11:17:10;;;;;;;8.20;7.32;;;;;;;15.68;72.53;98260.13;4984760;28;20202;-57
2022/04/21 11:19:44;;;;;;;8.52;7.55;;;;;;;16.03;70.85;98249.06;4975381;28;20180;-56
2022/04/21 11:22:11;;;;;;;8.65;7.78;;;;;;;15.56;69.98;98242.19;4980357;28;20182;-57
2022/04/21 11:24:55;;;;;;;7.20;6.63;;;;;;;15.96;69.86;98247.97;4989915;28;20206;-56
2022/04/21 11:27:21;;;;;;;8.75;7.88;;;;;;;16.14;68.60;98241.03;4978215;28;20266;-57
2022/04/21 11:29:46;;;;;;;8.43;7.63;;;;;;;16.20;71.28;98236.06;4988098;28;20254;-56
2022/04/21 11:32:15;;;;;;;8.18;7.38;;;;;;;16.33;70.01;98225.31;4973665;28;20187;-56
2022/04/21 11:34:42;;;;;;;8.90;7.00;;;;;;;16.59;70.56;98227.13;4979004;28;20234;-56
2022/04/21 11:37:07;;;;;;;7.40;6.70;;;;;;;16.61;67.95;98219.13;4981105;28;20191;-56
2022/04/21 11:39:37;;;;;;;9.13;7.35;;;;;;;16.57;69.98;98217.78;4979121;28;20192;-57
2022/04/21 11:42:03;;;;;;;7.20;6.60;;;;;;;16.73;70.32;98223.19;4985344;28;20183;-56
2022/04/21 11:44:29;;;;;;;10.38;5.88;;;;;;;16.88;67.34;98221.69;4988150;28;20640;-57
2022/04/21 11:46:54;;;;;;;6.32;5.72;;;;;;;16.66;64.73;98206.44;4975273;28;20674;-57
2022/04/21 11:49:20;;;;;;;7.88;5.70;;;;;;;16.58;66.56;98208.97;4976555;28;20203;-57
2022/04/21 11:51:51;;;;;;;6.43;5.60;;;;;;;16.67;65.32;98206.28;4980984;28;20211;-57
2022/04/21 11:54:17;;;;;;;6.28;5.78;;;;;;;16.55;63.34;98204.03;4976788;28;20398;-57
2022/04/21 11:56:50;;;;;;;9.75;5.10;;;;;;;16.85;63.40;98195.84;4979476;28;20178;-58
2022/04/21 11:59:15;;;;;;;7.15;5.32;;;;;;;17.21;63.04;98182.59;4983436;28;20258;-57
2022/04/21 12:07:16;;;;;;;5.22;4.10;;;;;;;17.70;57.68;98183.78;4983517;28;20183;-57
2022/04/21 12:09:43;;;;;;;4.72;4.38;;;;;;;17.84;59.86;98191.09;4976167;28;20204;-57
2022/04/21 12:12:10;;;;;;;3.80;3.50;;;;;;;18.00;55.03;98196.38;4971244;28;20196;-57
2022/04/21 12:14:39;;;;;;;4.22;3.70;;;;;;;18.05;53.20;98194.13;4974321;28;20190;-57
2022/04/21 12:17:06;;;;;;;4.70;4.35;;;;;;;17.64;56.01;98187.03;4978347;28;20171;-57
2022/04/21 12:19:33;;;;;;;4.90;4.50;;;;;;;17.75;56.24;98189.38;4980630;28;20195;-57
2022/04/21 12:22:01;;;;;;;4.93;4.32;;;;;;;17.64;56.48;98185.25;4979404;28;20222;-58
2022/04/21 12:24:31;;;;;;;4.72;3.53;;;;;;;17.94;54.04;98158.56;4976576;28;20220;-57
2022/04/21 12:26:57;;;;;;;4.53;4.20;;;;;;;18.25;56.12;98175.38;4975904;28;20587;-57